Time;durP1;ratioP1;P1;durP2;ratioP2;P2;SDS_P1;SDS_P2;PMS_P1;PMS_P2;Temp;Humidity;BMP_temperature;BMP_pressure;BME280_temperature;BME280_humidity;BME280_pressure;Samples;Min_cycle;Max_cycle;Signal;HPM_P1;HPM_P2
2023/10/21 00:00:03;;;;;;;;;;;;;;;13.84;64.77;99409.66;3161913;28;19923;-63
2023/10/21 00:01:35;;;;;;;;;;;;;;;13.81;64.85;99409.84;3149495;28;19940;-62
2023/10/21 00:03:05;;;;;;;;;;;;;;;13.79;64.78;99409.97;3170957;28;20288;-63
2023/10/21 00:04:37;;;;;;;;;;;;;;;13.79;64.84;99409.97;3169463;28;19923;-63
2023/10/21 00:06:08;;;;;;;;;;;;;;;13.80;64.87;99413.41;3168374;28;20425;-62
2023/10/21 00:07:39;;;;;;;;;;;;;;;13.78;64.84;99412.66;3168994;28;19923;-63
2023/10/21 00:09:10;;;;;;;;;;;;;;;13.77;64.91;99414.47;3166651;28;19923;-63
2023/10/21 00:10:43;;;;;;;;;;;;;;;13.78;65.07;99410.91;3166492;28;19926;-63
2023/10/21 00:12:13;;;;;;;;;;;;;;;13.77;64.96;99401.38;3159561;28;20388;-63
2023/10/21 00:13:45;;;;;;;;;;;;;;;13.76;64.92;99415.41;3170323;28;19926;-62
2023/10/21 00:15:15;;;;;;;;;;;;;;;13.74;64.93;99411.19;3171204;28;19920;-63
2023/10/21 00:16:48;;;;;;;;;;;;;;;13.74;65.06;99401.56;3162123;28;20021;-65
2023/10/21 00:18:18;;;;;;;;;;;;;;;13.72;65.03;99411.28;3162358;28;19923;-63
2023/10/21 00:19:50;;;;;;;;;;;;;;;13.72;65.19;99413.91;3170885;28;20367;-62
2023/10/21 00:21:21;;;;;;;;;;;;;;;13.68;65.29;99407.19;3167546;28;19928;-63
2023/10/21 00:22:52;;;;;;;;;;;;;;;13.66;65.54;99401.22;3154194;28;19924;-63
2023/10/21 00:24:23;;;;;;;;;;;;;;;13.61;65.45;99401.53;3157538;28;19920;-64
2023/10/21 00:25:56;;;;;;;;;;;;;;;13.60;65.58;99412.06;3162763;28;20003;-63
2023/10/21 00:27:27;;;;;;;;;;;;;;;13.58;65.47;99412.19;3166790;28;20376;-63
2023/10/21 00:28:59;;;;;;;;;;;;;;;13.54;65.83;99405.44;3169749;28;19919;-63
2023/10/21 00:30:31;;;;;;;;;;;;;;;13.51;66.11;99403.03;3169259;28;19924;-64
2023/10/21 00:32:04;;;;;;;;;;;;;;;13.52;65.88;99409.13;3168337;28;19927;-62
2023/10/21 00:33:34;;;;;;;;;;;;;;;13.51;65.86;99413.50;3170815;28;19998;-64
2023/10/21 00:35:06;;;;;;;;;;;;;;;13.51;65.88;99412.66;3171124;28;19926;-64
2023/10/21 00:36:37;;;;;;;;;;;;;;;13.52;65.87;99416.97;3170619;28;19924;-63
2023/10/21 00:38:08;;;;;;;;;;;;;;;13.53;65.77;99424.72;3170017;28;19920;-63
2023/10/21 00:39:39;;;;;;;;;;;;;;;13.50;66.11;99418.84;3170684;28;19934;-63
2023/10/21 00:41:12;;;;;;;;;;;;;;;13.49;66.01;99422.38;3166822;28;19931;-63
2023/10/21 00:42:43;;;;;;;;;;;;;;;13.45;66.02;99426.13;3162849;28;20320;-63
2023/10/21 00:44:14;;;;;;;;;;;;;;;13.41;66.29;99426.31;3170348;28;19928;-63
2023/10/21 00:45:45;;;;;;;;;;;;;;;13.36;66.50;99415.31;3161617;28;19920;-63
2023/10/21 00:47:16;;;;;;;;;;;;;;;13.35;66.24;99418.88;3170630;28;19920;-63
2023/10/21 00:48:47;;;;;;;;;;;;;;;13.37;66.43;99419.63;3170661;28;19923;-63
2023/10/21 00:50:20;;;;;;;;;;;;;;;13.39;66.46;99414.28;3170777;28;20329;-62
2023/10/21 00:51:51;;;;;;;;;;;;;;;13.35;66.29;99420.66;3161252;28;20399;-62
2023/10/21 00:53:22;;;;;;;;;;;;;;;13.33;66.42;99422.50;3158403;28;19924;-63
2023/10/21 00:54:54;;;;;;;;;;;;;;;13.35;66.57;99425.88;3160311;28;19927;-62
2023/10/21 00:56:26;;;;;;;;;;;;;;;13.35;66.40;99426.72;3157342;28;19920;-63
2023/10/21 00:57:57;;;;;;;;;;;;;;;13.35;66.42;99418.88;3159760;28;19928;-62
2023/10/21 00:59:28;;;;;;;;;;;;;;;13.36;66.32;99414.47;3170404;28;20300;-62
2023/10/21 01:01:01;;;;;;;;;;;;;;;13.35;66.56;99416.25;3159635;28;19920;-62
2023/10/21 01:02:32;;;;;;;;;;;;;;;13.37;66.33;99416.16;3170181;28;19931;-62
2023/10/21 01:04:04;;;;;;;;;;;;;;;13.33;66.65;99412.03;3170295;28;20398;-62
2023/10/21 01:05:36;;;;;;;;;;;;;;;13.32;66.45;99413.00;3154423;28;19920;-63
2023/10/21 01:07:13;;;;;;;;;;;;;;;13.31;66.54;99414.78;3168617;28;20002;-63
2023/10/21 01:08:46;;;;;;;;;;;;;;;13.26;66.80;99410.75;3159601;28;19920;-63
2023/10/21 01:10:16;;;;;;;;;;;;;;;13.22;66.96;99417.91;3160123;28;20003;-62
2023/10/21 01:11:50;;;;;;;;;;;;;;;13.21;67.05;99421.47;3166713;28;19927;-62
2023/10/21 01:13:20;;;;;;;;;;;;;;;13.18;67.25;99419.88;3170365;28;19923;-62
2023/10/21 01:14:52;;;;;;;;;;;;;;;13.15;67.41;99416.63;3170079;28;20384;-63
2023/10/21 01:16:23;;;;;;;;;;;;;;;13.16;67.21;99424.38;3165682;28;20395;-64
2023/10/21 01:17:54;;;;;;;;;;;;;;;13.15;67.21;99416.63;3170156;28;19919;-64
2023/10/21 01:19:25;;;;;;;;;;;;;;;13.15;67.27;99420.06;3170079;28;19927;-64
2023/10/21 01:20:57;;;;;;;;;;;;;;;13.17;67.26;99414.75;3168424;28;19924;-64
2023/10/21 01:22:28;;;;;;;;;;;;;;;13.18;67.01;99421.66;3158355;28;19919;-63
2023/10/21 01:24:01;;;;;;;;;;;;;;;13.16;67.16;99421.78;3160929;28;19930;-65
2023/10/21 01:25:32;;;;;;;;;;;;;;;13.13;67.17;99421.09;3168344;28;19938;-64
2023/10/21 01:27:04;;;;;;;;;;;;;;;13.12;67.29;99419.41;3149240;28;20054;-64
2023/10/21 01:28:34;;;;;;;;;;;;;;;13.11;67.45;99417.75;3170082;28;19920;-63
2023/10/21 01:30:07;;;;;;;;;;;;;;;13.08;67.35;99407.50;3165567;28;19926;-63
2023/10/21 01:31:37;;;;;;;;;;;;;;;13.04;67.73;99411.22;3170389;28;20312;-63
2023/10/21 01:33:09;;;;;;;;;;;;;;;13.05;67.53;99415.53;3170577;28;19920;-65
2023/10/21 01:34:39;;;;;;;;;;;;;;;13.05;67.66;99413.75;3169906;28;19919;-63
2023/10/21 01:36:11;;;;;;;;;;;;;;;13.03;67.88;99414.75;3170022;28;19919;-62
2023/10/21 01:37:42;;;;;;;;;;;;;;;13.00;67.78;99409.72;3167147;28;19973;-63
2023/10/21 01:39:15;;;;;;;;;;;;;;;12.95;68.23;99410.00;3166804;28;19996;-62
2023/10/21 01:40:46;;;;;;;;;;;;;;;12.93;68.37;99406.66;3162799;28;19932;-63
2023/10/21 01:42:18;;;;;;;;;;;;;;;12.93;67.99;99419.72;3160282;28;19923;-63
2023/10/21 01:43:48;;;;;;;;;;;;;;;12.95;68.06;99417.84;3169589;28;19989;-63
2023/10/21 01:45:20;;;;;;;;;;;;;;;12.96;67.86;99414.31;3160466;28;19924;-64
2023/10/21 01:46:50;;;;;;;;;;;;;;;12.94;67.84;99431.84;3157509;28;19924;-63
2023/10/21 01:48:22;;;;;;;;;;;;;;;12.94;68.17;99424.00;3168394;28;20030;-63
2023/10/21 01:49:53;;;;;;;;;;;;;;;12.92;68.17;99431.94;3171717;28;19920;-63
2023/10/21 01:51:25;;;;;;;;;;;;;;;12.92;68.05;99426.69;3168977;28;19984;-63
2023/10/21 01:52:55;;;;;;;;;;;;;;;12.94;67.96;99435.28;3160811;28;19935;-63
2023/10/21 01:54:28;;;;;;;;;;;;;;;12.96;67.73;99428.22;3165557;28;20507;-65
2023/10/21 01:55:59;;;;;;;;;;;;;;;12.98;67.73;99428.09;3163293;28;20385;-63
2023/10/21 01:57:31;;;;;;;;;;;;;;;13.00;67.95;99428.84;3163653;28;19955;-63
2023/10/21 01:59:02;;;;;;;;;;;;;;;13.00;67.56;99441.94;3172428;28;20029;-62
2023/10/21 02:00:34;;;;;;;;;;;;;;;13.01;67.68;99437.53;3168049;28;19930;-64
2023/10/21 02:02:05;;;;;;;;;;;;;;;12.97;67.79;99434.28;3172543;28;19920;-64
2023/10/21 02:03:36;;;;;;;;;;;;;;;12.95;67.75;99443.97;3172553;28;20021;-64
2023/10/21 02:05:08;;;;;;;;;;;;;;;12.95;67.81;99439.59;3168791;28;19977;-64
2023/10/21 02:06:40;;;;;;;;;;;;;;;12.96;67.69;99440.44;3163627;28;20018;-64
2023/10/21 02:08:10;;;;;;;;;;;;;;;12.94;67.60;99442.31;3166829;28;19920;-63
2023/10/21 02:09:43;;;;;;;;;;;;;;;12.93;68.02;99443.25;3172856;28;19923;-64
2023/10/21 02:11:19;;;;;;;;;;;;;;;12.93;67.77;99441.47;3159027;28;20381;-64
2023/10/21 02:12:50;;;;;;;;;;;;;;;12.92;68.13;99437.16;3159949;28;19963;-63
2023/10/21 02:14:22;;;;;;;;;;;;;;;12.92;68.00;99444.16;3168964;28;19935;-64
2023/10/21 02:15:53;;;;;;;;;;;;;;;12.93;68.14;99449.31;3170474;28;19920;-63
2023/10/21 02:17:24;;;;;;;;;;;;;;;12.91;68.08;99451.16;3163713;28;20343;-64
2023/10/21 02:18:56;;;;;;;;;;;;;;;12.90;68.05;99446.03;3169125;28;19924;-64
2023/10/21 02:20:26;;;;;;;;;;;;;;;12.88;68.19;99453.97;3164603;28;19959;-64
2023/10/21 02:21:58;;;;;;;;;;;;;;;12.86;68.15;99461.03;3156398;28;19924;-63
2023/10/21 02:23:28;;;;;;;;;;;;;;;12.82;68.30;99450.88;3162412;28;19959;-63
2023/10/21 02:25:01;;;;;;;;;;;;;;;12.77;68.64;99461.59;3165469;28;20301;-64
2023/10/21 02:26:32;;;;;;;;;;;;;;;12.74;68.77;99459.16;3163163;28;19928;-66
2023/10/21 02:28:04;;;;;;;;;;;;;;;12.71;68.93;99465.41;3172104;28;19920;-66
2023/10/21 02:29:34;;;;;;;;;;;;;;;12.70;69.03;99465.53;3167654;28;20372;-66
2023/10/21 02:31:06;;;;;;;;;;;;;;;12.68;69.03;99462.16;3172594;28;19948;-66
2023/10/21 02:32:37;;;;;;;;;;;;;;;12.68;68.85;99469.97;3163765;28;19924;-67
2023/10/21 02:34:09;;;;;;;;;;;;;;;12.68;68.78;99475.22;3160562;28;19927;-67
2023/10/21 02:35:42;;;;;;;;;;;;;;;12.70;68.89;99471.56;3163755;28;20301;-68
2023/10/21 02:37:13;;;;;;;;;;;;;;;12.74;68.89;99469.63;3171992;28;19969;-68
2023/10/21 02:38:44;;;;;;;;;;;;;;;12.77;68.62;99477.28;3172093;28;19924;-68
2023/10/21 02:40:16;;;;;;;;;;;;;;;12.77;68.67;99485.13;3171738;28;20320;-68
2023/10/21 02:41:48;;;;;;;;;;;;;;;12.72;68.60;99485.41;3150219;28;19970;-65
2023/10/21 02:43:19;;;;;;;;;;;;;;;12.71;68.73;99483.69;3171872;28;19951;-64
2023/10/21 02:44:52;;;;;;;;;;;;;;;12.72;68.80;99479.34;3169155;28;19920;-64
2023/10/21 02:46:22;;;;;;;;;;;;;;;12.73;68.68;99481.00;3166827;28;19931;-64
2023/10/21 02:47:54;;;;;;;;;;;;;;;12.74;68.32;99480.06;3170043;28;20006;-64
2023/10/21 02:49:24;;;;;;;;;;;;;;;12.73;68.50;99481.00;3165082;28;19927;-64
2023/10/21 02:50:56;;;;;;;;;;;;;;;12.69;68.48;99479.53;3172036;28;19935;-64
2023/10/21 02:52:26;;;;;;;;;;;;;;;12.64;69.15;99484.16;3159826;28;19931;-64
2023/10/21 02:53:58;;;;;;;;;;;;;;;12.63;68.84;99477.25;3160412;28;20530;-64
2023/10/21 02:55:30;;;;;;;;;;;;;;;12.64;68.93;99482.38;3170808;28;19919;-64
2023/10/21 02:57:02;;;;;;;;;;;;;;;12.61;69.04;99482.56;3154598;28;19927;-64
2023/10/21 02:58:32;;;;;;;;;;;;;;;12.50;69.56;99480.56;3162739;28;19924;-64
2023/10/21 03:00:05;;;;;;;;;;;;;;;12.47;69.93;99485.97;3171430;28;19943;-64
2023/10/21 03:01:37;;;;;;;;;;;;;;;12.45;69.68;99494.81;3172003;28;19928;-64
2023/10/21 03:03:08;;;;;;;;;;;;;;;12.43;69.92;99487.09;3160702;28;19924;-64
2023/10/21 03:04:39;;;;;;;;;;;;;;;12.42;69.80;99481.94;3169081;28;19926;-64
2023/10/21 03:06:11;;;;;;;;;;;;;;;12.43;69.92;99489.72;3168751;28;19943;-64
2023/10/21 03:07:42;;;;;;;;;;;;;;;12.41;70.03;99501.16;3169432;28;19935;-63
2023/10/21 03:09:15;;;;;;;;;;;;;;;12.36;70.32;99495.34;3168053;28;20357;-63
2023/10/21 03:10:48;;;;;;;;;;;;;;;12.37;70.15;99504.91;3166154;28;20466;-65
2023/10/21 03:12:19;;;;;;;;;;;;;;;12.38;70.16;99511.78;3162092;28;19930;-65
2023/10/21 03:13:51;;;;;;;;;;;;;;;12.34;70.30;99505.91;3163199;28;19999;-65
2023/10/21 03:15:21;;;;;;;;;;;;;;;12.33;70.14;99504.22;3171980;28;20014;-65
2023/10/21 03:16:54;;;;;;;;;;;;;;;12.35;70.43;99515.41;3167656;28;20395;-65
2023/10/21 03:18:24;;;;;;;;;;;;;;;12.34;70.19;99518.13;3171799;28;19920;-65
2023/10/21 03:19:56;;;;;;;;;;;;;;;12.28;70.45;99507.09;3171776;28;19958;-64
2023/10/21 03:21:26;;;;;;;;;;;;;;;12.29;70.26;99502.72;3167717;28;19980;-65
2023/10/21 03:22:58;;;;;;;;;;;;;;;12.31;70.27;99513.09;3156364;28;20509;-65
2023/10/21 03:24:29;;;;;;;;;;;;;;;12.24;70.88;99510.78;3162510;28;20339;-65
2023/10/21 03:26:02;;;;;;;;;;;;;;;12.20;70.93;99506.69;3162322;28;19920;-65
2023/10/21 03:27:33;;;;;;;;;;;;;;;12.21;71.13;99505.75;3150068;28;19973;-65
2023/10/21 03:29:04;;;;;;;;;;;;;;;12.21;70.84;99517.97;3171268;28;20319;-65
2023/10/21 03:30:35;;;;;;;;;;;;;;;12.16;71.32;99514.78;3165508;28;19920;-65
2023/10/21 03:32:07;;;;;;;;;;;;;;;12.14;71.25;99508.81;3169443;28;20312;-65
2023/10/21 03:33:38;;;;;;;;;;;;;;;12.14;71.40;99517.47;3171296;28;20384;-66
2023/10/21 03:35:09;;;;;;;;;;;;;;;12.15;71.40;99523.53;3171813;28;19991;-65
2023/10/21 03:36:40;;;;;;;;;;;;;;;12.16;71.25;99518.22;3171350;28;19919;-65
2023/10/21 03:38:12;;;;;;;;;;;;;;;12.18;70.97;99520.75;3171281;28;19938;-65
2023/10/21 03:39:42;;;;;;;;;;;;;;;12.21;71.12;99520.56;3171764;28;19976;-65
2023/10/21 03:41:16;;;;;;;;;;;;;;;12.21;71.02;99520.56;3167538;28;19919;-66
2023/10/21 03:42:47;;;;;;;;;;;;;;;12.17;71.22;99519.91;3166601;28;19923;-66
2023/10/21 03:44:18;;;;;;;;;;;;;;;12.16;71.14;99526.06;3168474;28;19919;-66
2023/10/21 03:45:49;;;;;;;;;;;;;;;12.12;71.23;99514.09;3161662;28;19923;-65
2023/10/21 03:47:20;;;;;;;;;;;;;;;12.11;71.56;99508.97;3171732;28;19928;-63
2023/10/21 03:48:51;;;;;;;;;;;;;;;12.11;71.28;99511.59;3170243;28;19924;-63
2023/10/21 03:50:22;;;;;;;;;;;;;;;12.09;71.30;99519.50;3158860;28;19927;-63
2023/10/21 03:51:53;;;;;;;;;;;;;;;12.03;71.86;99512.84;3161907;28;19920;-63
2023/10/21 03:53:24;;;;;;;;;;;;;;;12.03;71.78;99504.19;3160489;28;20392;-63
2023/10/21 03:54:55;;;;;;;;;;;;;;;12.05;71.87;99508.38;3168390;28;20467;-63
2023/10/21 03:56:28;;;;;;;;;;;;;;;12.05;71.64;99511.00;3155417;28;19921;-63
2023/10/21 03:57:58;;;;;;;;;;;;;;;12.05;71.77;99515.38;3168195;28;19924;-63
2023/10/21 03:59:30;;;;;;;;;;;;;;;12.06;71.78;99514.44;3167041;28;19942;-63
2023/10/21 04:01:00;;;;;;;;;;;;;;;12.06;71.64;99514.44;3171207;28;19919;-64
2023/10/21 04:02:32;;;;;;;;;;;;;;;12.04;71.66;99496.28;3171296;28;19934;-65
2023/10/21 04:04:04;;;;;;;;;;;;;;;12.07;71.64;99503.94;3171108;28;20423;-65
2023/10/21 04:05:34;;;;;;;;;;;;;;;12.10;71.46;99507.28;3165628;28;19923;-64
2023/10/21 04:07:06;;;;;;;;;;;;;;;12.10;71.16;99496.84;3170544;28;19991;-64
2023/10/21 04:08:37;;;;;;;;;;;;;;;12.12;71.39;99487.16;3164719;28;20379;-65
2023/10/21 04:10:08;;;;;;;;;;;;;;;12.14;71.11;99503.59;3162943;28;19920;-65
2023/10/21 04:11:41;;;;;;;;;;;;;;;12.14;71.15;99498.38;3158790;28;19920;-65
2023/10/21 04:13:13;;;;;;;;;;;;;;;12.10;71.09;99494.22;3162338;28;20439;-65
2023/10/21 04:14:44;;;;;;;;;;;;;;;12.11;71.22;99496.75;3171176;28;20323;-64
2023/10/21 04:16:15;;;;;;;;;;;;;;;12.12;71.22;99495.00;3171570;28;19919;-65
2023/10/21 04:17:47;;;;;;;;;;;;;;;12.12;71.19;99495.81;3165020;28;19931;-65
2023/10/21 04:19:19;;;;;;;;;;;;;;;12.10;71.36;99491.63;3170441;28;20389;-64
2023/10/21 04:20:49;;;;;;;;;;;;;;;12.13;71.28;99489.69;3170758;28;19977;-64
2023/10/21 04:22:21;;;;;;;;;;;;;;;12.15;71.20;99502.66;3154514;28;19981;-64
2023/10/21 04:23:52;;;;;;;;;;;;;;;12.16;71.01;99501.75;3162686;28;19932;-64
2023/10/21 04:25:23;;;;;;;;;;;;;;;12.18;71.04;99494.63;3166726;28;20312;-64
2023/10/21 04:26:55;;;;;;;;;;;;;;;12.16;70.77;99502.56;3158417;28;20441;-64
2023/10/21 04:28:27;;;;;;;;;;;;;;;12.13;70.90;99501.91;3163976;28;19970;-65
2023/10/21 04:29:58;;;;;;;;;;;;;;;12.11;71.04;99483.72;3171291;28;19930;-64
2023/10/21 04:31:33;;;;;;;;;;;;;;;12.11;71.17;99491.53;3171172;28;20427;-64
2023/10/21 04:33:05;;;;;;;;;;;;;;;12.10;71.07;99496.84;3171042;28;19919;-64
2023/10/21 04:34:35;;;;;;;;;;;;;;;12.06;71.34;99486.56;3170991;28;20254;-65
2023/10/21 04:36:07;;;;;;;;;;;;;;;12.08;71.36;99496.94;3170606;28;19924;-64
2023/10/21 04:37:38;;;;;;;;;;;;;;;12.08;71.34;99510.00;3170618;28;19923;-65
2023/10/21 04:39:09;;;;;;;;;;;;;;;12.03;71.55;99510.22;3170641;28;19963;-65
2023/10/21 04:40:40;;;;;;;;;;;;;;;12.03;71.52;99507.63;3164047;28;19963;-65
2023/10/21 04:42:13;;;;;;;;;;;;;;;12.03;71.69;99515.44;3171015;28;19927;-65
2023/10/21 04:43:43;;;;;;;;;;;;;;;12.04;71.73;99517.16;3170498;28;19966;-65
2023/10/21 04:45:15;;;;;;;;;;;;;;;12.03;71.75;99517.22;3164048;28;19924;-64
2023/10/21 04:46:46;;;;;;;;;;;;;;;12.02;71.72;99519.00;3169087;28;19919;-63
2023/10/21 04:48:18;;;;;;;;;;;;;;;12.04;71.37;99524.16;3170407;28;20006;-63
2023/10/21 04:49:48;;;;;;;;;;;;;;;12.07;71.57;99524.81;3170432;28;20714;-63
2023/10/21 04:51:20;;;;;;;;;;;;;;;12.06;71.56;99524.88;3168914;28;19938;-63
2023/10/21 04:52:50;;;;;;;;;;;;;;;12.07;71.39;99524.81;3158874;28;20309;-64
2023/10/21 04:54:22;;;;;;;;;;;;;;;12.10;71.18;99525.53;3162665;28;19928;-64
2023/10/21 04:55:54;;;;;;;;;;;;;;;12.10;71.39;99529.03;3152601;28;19936;-63
2023/10/21 04:57:25;;;;;;;;;;;;;;;12.11;71.14;99525.47;3160648;28;20277;-64
2023/10/21 04:58:59;;;;;;;;;;;;;;;12.10;71.20;99530.75;3170671;28;19920;-64
2023/10/21 05:00:29;;;;;;;;;;;;;;;12.11;71.38;99545.53;3170424;28;19919;-64
2023/10/21 05:02:01;;;;;;;;;;;;;;;12.09;71.67;99542.16;3170132;28;19927;-63
2023/10/21 05:03:31;;;;;;;;;;;;;;;12.06;71.69;99528.31;3170499;28;20414;-63
2023/10/21 05:05:03;;;;;;;;;;;;;;;12.11;71.72;99543.75;3166270;28;19920;-63
2023/10/21 05:06:34;;;;;;;;;;;;;;;12.11;71.37;99538.53;3158508;28;19920;-63
2023/10/21 05:08:05;;;;;;;;;;;;;;;12.14;71.32;99534.91;3164799;28;19930;-67
2023/10/21 05:09:37;;;;;;;;;;;;;;;12.13;71.60;99544.50;3158824;28;20324;-66
2023/10/21 05:11:07;;;;;;;;;;;;;;;12.16;71.28;99543.50;3158484;28;20366;-68
2023/10/21 05:12:40;;;;;;;;;;;;;;;12.15;71.25;99542.63;3170114;28;20018;-66
2023/10/21 05:14:11;;;;;;;;;;;;;;;12.16;71.36;99546.13;3169880;28;20293;-65
2023/10/21 05:15:42;;;;;;;;;;;;;;;12.18;71.42;99552.06;3170112;28;20060;-66
2023/10/21 05:17:13;;;;;;;;;;;;;;;12.16;71.60;99536.50;3161099;28;19923;-66
2023/10/21 05:18:45;;;;;;;;;;;;;;;12.17;71.81;99540.78;3165364;28;20049;-65
2023/10/21 05:20:15;;;;;;;;;;;;;;;12.19;71.48;99548.56;3169803;28;20021;-62
2023/10/21 05:21:48;;;;;;;;;;;;;;;12.19;71.54;99545.94;3163288;28;20404;-67
2023/10/21 05:23:18;;;;;;;;;;;;;;;12.22;71.53;99548.38;3158551;28;19920;-66
2023/10/21 05:24:50;;;;;;;;;;;;;;;12.24;71.49;99551.72;3161599;28;20531;-65
2023/10/21 05:26:20;;;;;;;;;;;;;;;12.22;71.90;99553.59;3156540;28;19942;-69
2023/10/21 05:27:53;;;;;;;;;;;;;;;12.24;71.49;99557.78;3170273;28;19962;-67
2023/10/21 05:29:24;;;;;;;;;;;;;;;12.27;71.39;99572.44;3170156;28;20293;-64
2023/10/21 05:30:55;;;;;;;;;;;;;;;12.29;71.45;99578.44;3167250;28;19928;-69
2023/10/21 05:32:26;;;;;;;;;;;;;;;12.29;71.25;99571.44;3162586;28;19926;-67
2023/10/21 05:33:59;;;;;;;;;;;;;;;12.29;71.16;99574.03;3161731;28;19923;-71
2023/10/21 05:35:33;;;;;;;;;;;;;;;12.29;71.06;99586.25;3160102;28;19926;-76
2023/10/21 05:37:04;;;;;;;;;;;;;;;12.32;71.05;99577.41;3160536;28;20003;-70
2023/10/21 05:38:35;;;;;;;;;;;;;;;12.34;71.02;99581.63;3161026;28;19920;-69
2023/10/21 05:40:06;;;;;;;;;;;;;;;12.36;71.01;99589.38;3160444;28;19924;-70
2023/10/21 05:41:38;;;;;;;;;;;;;;;12.40;70.93;99593.50;3157766;28;19944;-62
2023/10/21 05:43:10;;;;;;;;;;;;;;;12.43;71.02;99583.72;3170785;28;19919;-65
2023/10/21 05:44:41;;;;;;;;;;;;;;;12.49;70.87;99587.75;3162817;28;19928;-65
2023/10/21 05:46:12;;;;;;;;;;;;;;;12.52;70.84;99598.88;3164311;28;19992;-67
2023/10/21 05:47:44;;;;;;;;;;;;;;;12.52;71.19;99606.72;3159572;28;19924;-63
2023/10/21 05:49:15;;;;;;;;;;;;;;;12.53;71.42;99600.53;3166864;28;20411;-63
2023/10/21 05:50:47;;;;;;;;;;;;;;;12.58;71.02;99599.47;3168104;28;19926;-62
2023/10/21 05:52:17;;;;;;;;;;;;;;;12.63;71.38;99616.56;3154660;28;19931;-64
2023/10/21 05:53:49;;;;;;;;;;;;;;;12.67;71.46;99612.00;3153753;28;19920;-65
2023/10/21 05:55:19;;;;;;;;;;;;;;;12.72;71.34;99610.81;3157640;28;19923;-63
2023/10/21 05:56:51;;;;;;;;;;;;;;;12.80;71.26;99612.97;3161212;28;20297;-64
2023/10/21 05:58:23;;;;;;;;;;;;;;;12.86;70.88;99609.16;3166465;28;19924;-61
2023/10/21 05:59:55;;;;;;;;;;;;;;;12.87;71.17;99609.09;3169475;28;20006;-63
2023/10/21 06:01:26;;;;;;;;;;;;;;;12.94;70.82;99610.41;3169321;28;19919;-62
2023/10/21 06:02:58;;;;;;;;;;;;;;;13.05;70.77;99606.34;3164194;28;19930;-61
2023/10/21 06:04:31;;;;;;;;;;;;;;;13.14;70.86;99601.41;3169887;28;19919;-63
2023/10/21 06:06:02;;;;;;;;;;;;;;;13.25;70.55;99605.16;3162413;28;19929;-62
2023/10/21 06:07:34;;;;;;;;;;;;;;;13.30;70.21;99603.97;3168911;28;19923;-62
2023/10/21 06:09:04;;;;;;;;;;;;;;;13.33;70.37;99601.19;3161269;28;20308;-61
2023/10/21 06:10:37;;;;;;;;;;;;;;;13.38;70.39;99617.44;3158308;28;19928;-62
2023/10/21 06:12:10;;;;;;;;;;;;;;;13.41;70.40;99619.03;3157025;28;20409;-62
2023/10/21 06:13:42;;;;;;;;;;;;;;;13.40;70.38;99614.75;3159913;28;19924;-61
2023/10/21 06:15:13;;;;;;;;;;;;;;;13.47;70.29;99613.44;3162160;28;19927;-64
2023/10/21 06:16:44;;;;;;;;;;;;;;;13.57;70.29;99609.31;3169517;28;19919;-63
2023/10/21 06:18:16;;;;;;;;;;;;;;;13.70;69.88;99603.38;3170218;28;19920;-61
2023/10/21 06:19:46;;;;;;;;;;;;;;;13.84;69.83;99612.06;3162320;28;19920;-63
2023/10/21 06:21:18;;;;;;;;;;;;;;;13.96;69.46;99609.59;3168830;28;20430;-63
2023/10/21 06:22:48;;;;;;;;;;;;;;;14.09;69.45;99610.53;3152158;28;20297;-63
2023/10/21 06:24:20;;;;;;;;;;;;;;;14.20;69.18;99615.09;3161500;28;20332;-62
2023/10/21 06:25:51;;;;;;;;;;;;;;;14.33;69.23;99608.97;3154904;28;19927;-61
2023/10/21 06:27:22;;;;;;;;;;;;;;;14.46;69.13;99601.16;3170157;28;20324;-62
2023/10/21 06:28:55;;;;;;;;;;;;;;;14.61;68.68;99609.88;3169874;28;20007;-63
2023/10/21 06:30:27;;;;;;;;;;;;;;;14.70;68.53;99617.13;3167286;28;19963;-62
2023/10/21 06:31:57;;;;;;;;;;;;;;;14.83;68.04;99614.53;3158702;28;19924;-63
2023/10/21 06:33:29;;;;;;;;;;;;;;;15.00;67.93;99603.78;3163823;28;20373;-63
2023/10/21 06:34:59;;;;;;;;;;;;;;;15.17;67.46;99602.66;3170395;28;19927;-62
2023/10/21 06:36:31;;;;;;;;;;;;;;;15.32;67.44;99610.41;3171893;28;20381;-62
2023/10/21 06:38:02;;;;;;;;;;;;;;;15.52;67.10;99607.28;3172014;28;19923;-62
2023/10/21 06:39:33;;;;;;;;;;;;;;;15.79;67.30;99608.97;3172395;28;20381;-62
2023/10/21 06:41:04;;;;;;;;;;;;;;;16.11;66.97;99619.84;3151222;28;19920;-62
2023/10/21 06:42:35;;;;;;;;;;;;;;;16.45;66.53;99620.06;3156647;28;19920;-63
2023/10/21 06:44:08;;;;;;;;;;;;;;;16.75;65.68;99615.19;3168531;28;19924;-62
2023/10/21 06:45:39;;;;;;;;;;;;;;;17.01;65.54;99618.53;3163194;28;19927;-63
2023/10/21 06:47:10;;;;;;;;;;;;;;;17.33;64.83;99620.50;3163780;28;19920;-64
2023/10/21 06:48:41;;;;;;;;;;;;;;;17.63;64.42;99616.50;3153493;28;19920;-64
2023/10/21 06:50:12;;;;;;;;;;;;;;;17.93;63.89;99605.41;3164125;28;20061;-65
2023/10/21 06:51:43;;;;;;;;;;;;;;;18.13;63.22;99606.44;3153974;28;19978;-62
2023/10/21 06:53:15;;;;;;;;;;;;;;;18.33;62.53;99618.88;3154153;28;19936;-63
2023/10/21 06:54:45;;;;;;;;;;;;;;;18.30;61.96;99613.84;3151680;28;20007;-63
2023/10/21 06:56:17;;;;;;;;;;;;;;;18.38;62.08;99598.25;3153267;28;19931;-63
2023/10/21 06:57:47;;;;;;;;;;;;;;;18.56;62.16;99617.03;3150196;28;19985;-63
2023/10/21 06:59:20;;;;;;;;;;;;;;;18.66;61.33;99627.66;3150894;28;20499;-63
2023/10/21 07:00:51;;;;;;;;;;;;;;;18.85;61.11;99619.13;3157186;28;19924;-63
2023/10/21 07:02:22;;;;;;;;;;;;;;;19.07;60.13;99620.81;3156660;28;19928;-64
2023/10/21 07:03:53;;;;;;;;;;;;;;;19.29;59.94;99628.59;3157924;28;19927;-64
2023/10/21 07:05:25;;;;;;;;;;;;;;;19.64;59.54;99619.50;3151647;28;19925;-64
2023/10/21 07:06:55;;;;;;;;;;;;;;;20.09;59.03;99610.38;3152843;28;19994;-64
2023/10/21 07:08:27;;;;;;;;;;;;;;;20.50;57.96;99614.66;3149795;28;19920;-64
2023/10/21 07:09:57;;;;;;;;;;;;;;;20.88;57.65;99621.81;3153132;28;19924;-62
2023/10/21 07:11:29;;;;;;;;;;;;;;;21.19;55.87;99620.81;3150431;28;19924;-62
2023/10/21 07:13:01;;;;;;;;;;;;;;;21.20;54.78;99615.34;3151016;28;19924;-61
2023/10/21 07:14:33;;;;;;;;;;;;;;;21.34;54.99;99627.31;3148687;28;20153;-61
2023/10/21 07:16:10;;;;;;;;;;;;;;;21.61;54.51;99617.81;3152287;28;19978;-61
2023/10/21 07:17:40;;;;;;;;;;;;;;;21.93;54.48;99620.88;3151226;28;20397;-63
2023/10/21 07:19:12;;;;;;;;;;;;;;;22.23;52.54;99614.47;3152426;28;19935;-61
2023/10/21 07:20:42;;;;;;;;;;;;;;;22.18;51.56;99614.09;3154405;28;20713;-61
2023/10/21 07:22:14;;;;;;;;;;;;;;;22.25;51.75;99623.13;3151289;28;19976;-63
2023/10/21 07:23:46;;;;;;;;;;;;;;;22.19;51.65;99626.38;3154306;28;20397;-64
2023/10/21 07:25:18;;;;;;;;;;;;;;;22.28;52.03;99627.31;3152945;28;19931;-61
2023/10/21 07:26:49;;;;;;;;;;;;;;;22.51;51.65;99618.91;3151562;28;19928;-63
2023/10/21 07:28:20;;;;;;;;;;;;;;;22.60;50.53;99610.06;3160378;28;19924;-63
2023/10/21 07:29:55;;;;;;;;;;;;;;;22.45;49.56;99610.59;3153612;28;20004;-60
2023/10/21 07:31:25;;;;;;;;;;;;;;;22.59;50.18;99625.13;3151829;28;19931;-61
2023/10/21 07:32:57;;;;;;;;;;;;;;;23.05;50.37;99622.44;3152032;28;19950;-63
2023/10/21 07:34:28;;;;;;;;;;;;;;;23.48;48.93;99605.63;3159924;28;20419;-62
2023/10/21 07:35:59;;;;;;;;;;;;;;;23.64;47.98;99604.91;3153092;28;19921;-63
2023/10/21 07:37:31;;;;;;;;;;;;;;;23.87;48.48;99620.31;3149719;28;19943;-61
2023/10/21 07:39:04;;;;;;;;;;;;;;;24.26;47.63;99618.81;3150118;28;19924;-60
2023/10/21 07:40:36;;;;;;;;;;;;;;;24.47;46.62;99609.59;3164348;28;19924;-61
2023/10/21 07:42:06;;;;;;;;;;;;;;;24.72;46.87;99615.78;3148352;28;20345;-65
2023/10/21 07:43:38;;;;;;;;;;;;;;;24.91;46.51;99609.31;3154372;28;19923;-65
2023/10/21 07:45:14;;;;;;;;;;;;;;;25.13;46.25;99613.97;3163103;28;19920;-66
2023/10/21 07:46:45;;;;;;;;;;;;;;;25.51;45.61;99611.59;3155966;28;20335;-70
2023/10/21 07:48:16;;;;;;;;;;;;;;;25.91;45.30;99604.50;3161263;28;20002;-64
2023/10/21 07:49:47;;;;;;;;;;;;;;;26.25;44.35;99603.34;3162063;28;19924;-65
2023/10/21 07:51:19;;;;;;;;;;;;;;;26.44;44.20;99594.88;3156877;28;19927;-65
2023/10/21 07:52:50;;;;;;;;;;;;;;;26.51;43.46;99611.91;3154578;28;20353;-65
2023/10/21 07:54:21;;;;;;;;;;;;;;;26.58;43.92;99595.97;3152937;28;19920;-65
2023/10/21 07:55:53;;;;;;;;;;;;;;;26.67;43.18;99600.25;3160794;28;20420;-65